createdAt,value
2018-09-19T00:00:05.568Z,5.15
2018-09-19T00:02:33.807Z,4.87
2018-09-19T00:05:02.198Z,4.60
2018-09-19T00:07:36.626Z,5.05
2018-09-19T00:10:05.103Z,5.12
2018-09-19T00:12:33.449Z,5.97
2018-09-19T00:15:01.698Z,4.78
2018-09-19T00:17:30.343Z,6.22
2018-09-19T00:19:58.604Z,4.60
2018-09-19T00:22:26.988Z,4.92
2018-09-19T00:24:56.304Z,4.67
2018-09-19T00:27:24.522Z,4.60
2018-09-19T00:29:52.743Z,4.72
2018-09-19T00:32:21.019Z,4.92
2018-09-19T00:34:49.245Z,5.05
2018-09-19T00:37:17.506Z,4.45
2018-09-19T00:39:46.444Z,4.90
2018-09-19T00:42:14.657Z,5.15
2018-09-19T00:44:42.971Z,4.87
2018-09-19T00:47:13.871Z,4.90
2018-09-19T00:49:42.093Z,4.78
2018-09-19T00:52:10.353Z,4.75
2018-09-19T00:54:38.695Z,4.80
2018-09-19T00:57:06.918Z,5.10
2018-09-19T00:59:35.153Z,5.03
2018-09-19T01:02:03.932Z,4.65
2018-09-19T01:04:32.165Z,5.78
2018-09-19T01:07:00.463Z,5.03
2018-09-19T01:09:29.895Z,4.37
2018-09-19T01:11:58.105Z,5.50
2018-09-19T01:14:26.347Z,4.80
2018-09-19T01:16:54.827Z,4.62
2018-09-19T01:19:23.140Z,4.87
2018-09-19T01:21:51.378Z,4.50
2018-09-19T01:24:19.675Z,4.90
2018-09-19T01:26:47.991Z,5.08
2018-09-19T01:29:16.282Z,4.62
2018-09-19T01:31:45.814Z,4.95
2018-09-19T01:34:14.038Z,4.58
2018-09-19T01:36:42.347Z,5.10
2018-09-19T01:39:11.157Z,4.72
2018-09-19T01:41:39.412Z,5.03
2018-09-19T01:44:07.617Z,4.65
2018-09-19T01:46:36.028Z,4.83
2018-09-19T01:49:04.374Z,4.90
2018-09-19T01:51:32.635Z,4.70
2018-09-19T01:54:01.654Z,4.55
2018-09-19T01:56:29.889Z,4.97
2018-09-19T01:58:58.277Z,4.65
2018-09-19T02:01:27.094Z,4.97
2018-09-19T02:03:57.404Z,5.40
2018-09-19T02:06:25.614Z,4.62
2018-09-19T02:08:54.577Z,4.72
2018-09-19T02:11:23.549Z,6.53
2018-09-19T02:13:51.777Z,4.37
2018-09-19T02:16:20.390Z,4.65
2018-09-19T02:18:48.571Z,4.55
2018-09-19T02:21:16.869Z,4.53
2018-09-19T02:23:45.474Z,4.87
2018-09-19T02:26:13.713Z,4.95
2018-09-19T02:28:42.024Z,4.60
2018-09-19T02:31:10.610Z,4.80
2018-09-19T02:33:38.901Z,4.90
2018-09-19T02:36:07.121Z,5.12
2018-09-19T02:38:35.753Z,5.22
2018-09-19T02:41:03.966Z,4.50
2018-09-19T02:43:32.175Z,4.75
2018-09-19T02:46:01.290Z,5.15
2018-09-19T02:48:29.623Z,4.40
2018-09-19T02:50:57.881Z,4.75
2018-09-19T02:53:26.421Z,4.30
2018-09-19T02:55:54.705Z,4.78
2018-09-19T02:58:22.934Z,4.65
2018-09-19T03:00:51.568Z,4.42
2018-09-19T03:03:19.799Z,4.97
2018-09-19T03:05:48.085Z,4.90
2018-09-19T03:08:16.668Z,5.40
2018-09-19T03:10:44.893Z,5.12
2018-09-19T03:13:13.652Z,4.65
2018-09-19T03:15:41.955Z,5.58
2018-09-19T03:18:10.257Z,4.30
2018-09-19T03:20:38.474Z,4.72
2018-09-19T03:23:07.293Z,4.97
2018-09-19T03:25:35.493Z,4.47
2018-09-19T03:28:03.777Z,4.78
2018-09-19T03:30:32.431Z,5.08
2018-09-19T03:33:00.730Z,4.42
2018-09-19T03:35:29.000Z,5.08
2018-09-19T03:37:57.310Z,4.70
2018-09-19T03:40:25.716Z,4.20
2018-09-19T03:42:53.946Z,5.15
2018-09-19T03:45:22.495Z,4.67
2018-09-19T03:47:50.789Z,4.15
2018-09-19T03:50:19.013Z,4.35
2018-09-19T03:52:48.348Z,4.22
2018-09-19T03:55:16.606Z,4.42
2018-09-19T03:57:44.901Z,4.53
2018-09-19T04:00:13.300Z,4.72
2018-09-19T04:02:41.627Z,4.47
2018-09-19T04:05:09.850Z,4.45
2018-09-19T04:07:38.249Z,4.53
2018-09-19T04:10:06.461Z,4.28
2018-09-19T04:12:34.682Z,4.47
2018-09-19T04:15:04.070Z,4.60
2018-09-19T04:17:32.469Z,4.30
2018-09-19T04:20:00.769Z,4.42
2018-09-19T04:22:29.417Z,4.42
2018-09-19T04:24:57.662Z,4.65
2018-09-19T04:27:25.915Z,5.37
2018-09-19T04:29:54.349Z,4.45
2018-09-19T04:32:22.601Z,4.70
2018-09-19T04:34:50.806Z,5.22
2018-09-19T04:37:19.273Z,4.72
2018-09-19T04:39:47.550Z,4.67
2018-09-19T04:42:15.892Z,4.30
2018-09-19T04:44:44.829Z,4.12
2018-09-19T04:47:13.079Z,4.45
2018-09-19T04:49:41.370Z,4.10
2018-09-19T04:52:09.859Z,4.08
2018-09-19T04:54:38.104Z,6.08
2018-09-19T04:57:06.349Z,6.42
2018-09-19T04:59:35.081Z,8.63
2018-09-19T05:02:03.305Z,9.95
2018-09-19T05:04:33.502Z,10.95
2018-09-19T05:07:02.282Z,6.83
2018-09-19T05:09:30.517Z,6.90
2018-09-19T05:11:58.738Z,9.28
2018-09-19T05:14:27.215Z,8.83
2018-09-19T05:16:55.997Z,20.05
2018-09-19T05:19:24.318Z,19.73
2018-09-19T05:21:53.686Z,10.28
2018-09-19T05:24:21.934Z,13.88
2018-09-19T05:26:50.278Z,9.10
2018-09-19T05:29:18.819Z,7.60
2018-09-19T05:31:47.205Z,8.43
2018-09-19T05:34:15.451Z,12.45
2018-09-19T05:36:43.872Z,11.08
2018-09-19T05:39:12.105Z,9.88
2018-09-19T05:41:40.332Z,7.75
2018-09-19T05:44:09.105Z,6.75
2018-09-19T05:46:37.453Z,7.67
2018-09-19T05:49:05.795Z,11.93
2018-09-19T05:51:34.339Z,11.80
2018-09-19T05:54:02.589Z,8.03
2018-09-19T05:56:30.795Z,5.60
2018-09-19T05:58:59.388Z,8.48
2018-09-19T06:01:27.618Z,10.32
2018-09-19T06:03:56.026Z,7.80
2018-09-19T06:06:24.818Z,7.97
2018-09-19T06:08:53.062Z,7.90
2018-09-19T06:11:21.278Z,8.28
2018-09-19T06:13:49.859Z,7.45
2018-09-19T06:16:18.174Z,6.53
2018-09-19T06:18:47.202Z,6.30
2018-09-19T06:21:15.494Z,5.00
2018-09-19T06:23:43.791Z,4.90
2018-09-19T06:26:12.058Z,8.30
2018-09-19T06:28:40.955Z,7.22
2018-09-19T06:31:09.211Z,5.80
2018-09-19T06:33:37.491Z,5.12
2018-09-19T06:36:06.602Z,10.43
2018-09-19T06:38:34.835Z,9.88
2018-09-19T06:41:03.226Z,7.35
2018-09-19T06:43:31.374Z,10.82
2018-09-19T06:45:59.690Z,7.95
2018-09-19T06:48:27.923Z,8.93
2018-09-19T06:50:56.572Z,9.25
2018-09-19T06:53:24.876Z,6.35
2018-09-19T06:55:53.226Z,8.53
2018-09-19T06:58:22.014Z,11.53
2018-09-19T07:00:50.231Z,10.53
2018-09-19T07:03:18.451Z,6.53
2018-09-19T07:05:46.963Z,5.42
2018-09-19T07:08:15.366Z,6.53
2018-09-19T07:10:43.675Z,5.97
2018-09-19T07:13:12.089Z,5.90
2018-09-19T07:15:40.319Z,5.28
2018-09-19T07:18:08.824Z,5.37
2018-09-19T07:20:38.047Z,4.78
2018-09-19T07:23:06.558Z,6.53
2018-09-19T07:25:34.848Z,6.78
2018-09-19T07:28:03.619Z,6.60
2018-09-19T07:30:31.925Z,9.65
2018-09-19T07:33:00.213Z,11.28
2018-09-19T07:35:28.935Z,10.05
2018-09-19T07:37:57.152Z,12.58
2018-09-19T07:40:25.571Z,14.25
2018-09-19T07:42:54.379Z,12.18
2018-09-19T07:45:22.708Z,12.60
2018-09-19T07:47:50.969Z,7.72
2018-09-19T07:50:20.027Z,8.00
2018-09-19T07:52:48.346Z,10.95
2018-09-19T07:55:16.610Z,10.80
2018-09-19T07:57:45.058Z,6.67
2018-09-19T08:00:13.303Z,12.20
2018-09-19T08:02:41.550Z,6.62
2018-09-19T08:05:15.218Z,9.45
2018-09-19T08:07:43.526Z,9.38
2018-09-19T08:10:11.753Z,8.85
2018-09-19T08:12:40.570Z,9.08
2018-09-19T08:15:08.806Z,12.37
2018-09-19T08:17:37.038Z,8.40
2018-09-19T08:20:06.306Z,7.45
2018-09-19T08:22:34.610Z,7.95
2018-09-19T08:25:02.851Z,6.72
2018-09-19T08:27:31.863Z,6.78
2018-09-19T08:30:00.087Z,8.50
2018-09-19T08:32:28.311Z,9.45
2018-09-19T08:34:57.198Z,8.73
2018-09-19T08:37:25.426Z,9.33
2018-09-19T08:39:53.702Z,6.75
2018-09-19T08:42:22.627Z,10.70
2018-09-19T08:44:50.870Z,10.23
2018-09-19T08:47:19.073Z,8.68
2018-09-19T08:49:47.583Z,8.93
2018-09-19T08:52:15.825Z,12.47
2018-09-19T08:54:44.223Z,7.70
2018-09-19T08:57:12.760Z,7.85
2018-09-19T08:59:40.946Z,13.85
2018-09-19T09:02:09.202Z,12.23
2018-09-19T09:04:37.955Z,9.50
2018-09-19T09:07:06.213Z,10.50
2018-09-19T09:09:34.658Z,8.60
2018-09-19T09:12:03.049Z,9.75
2018-09-19T09:14:31.246Z,10.55
2018-09-19T09:16:59.466Z,9.50
2018-09-19T09:19:27.786Z,11.83
2018-09-19T09:21:57.346Z,14.40
2018-09-19T09:24:25.579Z,9.73
2018-09-19T09:26:54.519Z,10.23
2018-09-19T09:29:22.814Z,9.95
2018-09-19T09:31:51.059Z,9.90
2018-09-19T09:34:19.713Z,9.83
2018-09-19T09:36:47.961Z,13.43
2018-09-19T09:39:16.223Z,12.00
2018-09-19T09:41:44.662Z,8.78
2018-09-19T09:44:13.010Z,8.83
2018-09-19T09:46:41.467Z,6.70
2018-09-19T09:49:09.922Z,10.38
2018-09-19T09:51:38.159Z,10.85
2018-09-19T09:54:06.467Z,7.37
2018-09-19T09:56:34.955Z,12.20
2018-09-19T09:59:03.270Z,9.88
2018-09-19T10:01:31.535Z,12.95
2018-09-19T10:04:01.726Z,7.25
2018-09-19T10:06:29.995Z,6.65
2018-09-19T10:08:58.178Z,7.35
2018-09-19T10:11:26.866Z,10.48
2018-09-19T10:13:55.190Z,11.15
2018-09-19T10:16:23.503Z,11.43
2018-09-19T10:18:51.997Z,9.73
2018-09-19T10:21:20.232Z,8.58
2018-09-19T10:23:49.462Z,11.12
2018-09-19T10:26:18.179Z,10.68
2018-09-19T10:28:46.408Z,8.10
2018-09-19T10:31:14.710Z,11.70
2018-09-19T10:33:43.499Z,8.30
2018-09-19T10:36:11.815Z,11.93
2018-09-19T10:38:40.043Z,7.47
2018-09-19T10:41:08.371Z,10.60
2018-09-19T10:43:36.677Z,8.50
2018-09-19T10:46:04.907Z,10.32
2018-09-19T10:48:33.746Z,17.62
2018-09-19T10:51:01.960Z,17.52
2018-09-19T10:53:30.302Z,26.52
2018-09-19T10:55:58.547Z,20.10
2018-09-19T10:58:26.785Z,16.73
2018-09-19T11:00:55.033Z,12.45
2018-09-19T11:03:25.770Z,13.60
2018-09-19T11:05:54.007Z,16.82
2018-09-19T11:08:22.518Z,16.82
2018-09-19T11:10:51.190Z,17.37
2018-09-19T11:13:19.412Z,15.35
2018-09-19T11:15:47.826Z,12.85
2018-09-19T11:18:16.175Z,40.48
2018-09-19T11:20:44.409Z,12.47
2018-09-19T11:23:12.643Z,21.45
2018-09-19T11:25:42.362Z,19.02
2018-09-19T11:28:10.590Z,19.37
2018-09-19T11:30:38.835Z,20.97
2018-09-19T11:33:07.464Z,16.67
2018-09-19T11:35:35.782Z,14.90
2018-09-19T11:38:04.030Z,11.25
2018-09-19T11:40:32.609Z,20.10
2018-09-19T11:43:00.919Z,13.25
2018-09-19T11:45:29.228Z,15.18
2018-09-19T11:47:58.363Z,12.35
2018-09-19T11:50:26.588Z,17.35
2018-09-19T11:52:54.814Z,16.42
2018-09-19T11:55:23.816Z,13.53
2018-09-19T11:57:52.098Z,18.35
2018-09-19T12:00:20.318Z,11.12
2018-09-19T12:02:49.258Z,11.25
2018-09-19T12:05:17.567Z,11.33
2018-09-19T12:07:45.870Z,9.80
2018-09-19T12:10:15.206Z,16.60
2018-09-19T12:12:43.515Z,15.15
2018-09-19T12:15:11.814Z,12.45
2018-09-19T12:17:40.122Z,20.12
2018-09-19T12:20:08.422Z,14.43
2018-09-19T12:22:36.771Z,13.35
2018-09-19T12:25:06.618Z,22.73
2018-09-19T12:27:35.909Z,16.85
2018-09-19T12:30:04.367Z,10.23
2018-09-19T12:32:33.073Z,11.93
2018-09-19T12:35:01.318Z,12.43
2018-09-19T12:37:29.539Z,9.20
2018-09-19T12:39:58.414Z,16.48
2018-09-19T12:42:26.647Z,14.13
2018-09-19T12:44:54.977Z,11.78
2018-09-19T12:47:23.973Z,17.05
2018-09-19T12:49:52.213Z,8.78
2018-09-19T12:52:20.561Z,12.60
2018-09-19T12:54:49.002Z,13.50
2018-09-19T12:57:17.269Z,11.03
2018-09-19T12:59:45.590Z,13.20
2018-09-19T13:02:13.916Z,10.70
2018-09-19T13:04:42.239Z,7.55
2018-09-19T13:07:10.440Z,14.18
2018-09-19T13:09:39.822Z,12.88
2018-09-19T13:12:08.073Z,8.38
2018-09-19T13:14:36.386Z,10.53
2018-09-19T13:17:04.876Z,15.05
2018-09-19T13:19:33.096Z,11.57
2018-09-19T13:22:01.414Z,11.10
2018-09-19T13:24:29.766Z,8.28
2018-09-19T13:26:58.134Z,10.03
2018-09-19T13:29:27.787Z,10.28
2018-09-19T13:31:56.142Z,8.25
2018-09-19T13:34:24.545Z,7.12
2018-09-19T13:36:52.776Z,7.47
2018-09-19T13:39:21.674Z,7.28
2018-09-19T13:41:49.995Z,5.97
2018-09-19T13:44:18.363Z,5.92
2018-09-19T13:46:47.492Z,8.05
2018-09-19T13:49:28.545Z,6.60
2018-09-19T13:51:57.485Z,5.60
2018-09-19T13:54:25.726Z,4.50
2018-09-19T13:56:54.026Z,6.35
2018-09-19T13:59:22.531Z,5.37
2018-09-19T14:01:50.926Z,11.08
2018-09-19T14:04:21.383Z,5.17
2018-09-19T14:06:49.641Z,6.47
2018-09-19T14:09:17.880Z,6.22
2018-09-19T14:11:46.191Z,7.78
2018-09-19T14:14:14.418Z,8.45
2018-09-19T14:16:42.722Z,6.50
2018-09-19T14:19:12.352Z,7.08
2018-09-19T14:21:41.325Z,9.23
2018-09-19T14:24:09.551Z,4.75
2018-09-19T14:26:37.874Z,8.90
2018-09-19T14:29:06.874Z,5.87
2018-09-19T14:31:35.142Z,11.80
2018-09-19T14:34:03.435Z,7.62
2018-09-19T14:36:31.923Z,10.88
2018-09-19T14:39:00.238Z,9.65
2018-09-19T14:41:28.483Z,7.87
2018-09-19T14:43:57.561Z,9.05
2018-09-19T14:46:25.782Z,9.35
2018-09-19T14:48:54.178Z,9.10
2018-09-19T14:51:23.006Z,11.22
2018-09-19T14:53:51.326Z,16.45
2018-09-19T14:56:19.674Z,14.25
2018-09-19T14:58:48.655Z,12.15
2018-09-19T15:01:17.305Z,6.15
2018-09-19T15:03:45.545Z,10.15
2018-09-19T15:06:14.254Z,8.78
2018-09-19T15:08:42.583Z,12.13
2018-09-19T15:11:10.910Z,10.53
2018-09-19T15:13:39.754Z,10.30
2018-09-19T15:16:08.280Z,15.80
2018-09-19T15:18:36.518Z,10.43
2018-09-19T15:21:05.326Z,7.67
2018-09-19T15:23:33.605Z,9.65
2018-09-19T15:26:01.839Z,10.20
2018-09-19T15:28:30.498Z,7.53
2018-09-19T15:30:58.890Z,11.33
2018-09-19T15:33:27.113Z,11.40
2018-09-19T15:35:55.726Z,10.03
2018-09-19T15:38:23.950Z,14.40
2018-09-19T15:40:52.183Z,18.00
2018-09-19T15:43:21.426Z,13.48
2018-09-19T15:45:49.736Z,12.60
2018-09-19T15:48:17.990Z,14.83
2018-09-19T15:50:46.465Z,17.70
2018-09-19T15:53:14.703Z,16.95
2018-09-19T15:55:43.044Z,16.37
2018-09-19T15:58:11.547Z,12.37
2018-09-19T16:00:39.986Z,15.85
2018-09-19T16:03:08.324Z,14.83
2018-09-19T16:05:37.805Z,12.85
2018-09-19T16:08:06.805Z,8.80
2018-09-19T16:10:35.054Z,13.22
2018-09-19T16:13:03.407Z,17.37
2018-09-19T16:15:31.866Z,9.90
2018-09-19T16:18:00.098Z,12.68
2018-09-19T16:20:28.552Z,23.67
2018-09-19T16:22:56.821Z,26.82
2018-09-19T16:25:25.080Z,21.10
2018-09-19T16:27:54.211Z,30.02
2018-09-19T16:30:22.451Z,15.08
2018-09-19T16:32:50.722Z,17.23
2018-09-19T16:35:19.638Z,17.95
2018-09-19T16:37:47.996Z,17.05
2018-09-19T16:40:16.214Z,20.37
2018-09-19T16:42:44.632Z,19.70
2018-09-19T16:45:12.871Z,23.02
2018-09-19T16:47:41.150Z,12.68
2018-09-19T16:50:10.540Z,20.25
2018-09-19T16:52:38.815Z,12.85
2018-09-19T16:55:07.079Z,11.45
2018-09-19T16:57:35.779Z,15.43
2018-09-19T17:00:04.479Z,15.28
2018-09-19T17:02:32.748Z,15.00
2018-09-19T17:05:05.113Z,19.20
2018-09-19T17:07:33.379Z,11.78
2018-09-19T17:10:02.032Z,14.73
2018-09-19T17:12:30.325Z,15.25
2018-09-19T17:14:58.571Z,16.45
2018-09-19T17:17:26.887Z,16.97
2018-09-19T17:19:55.233Z,12.30
2018-09-19T17:22:23.479Z,12.07
2018-09-19T17:24:51.723Z,18.67
2018-09-19T17:27:21.038Z,15.80
2018-09-19T17:29:49.286Z,14.13
2018-09-19T17:32:17.661Z,13.80
2018-09-19T17:34:45.910Z,14.85
2018-09-19T17:37:14.379Z,18.00
2018-09-19T17:39:42.603Z,12.47
2018-09-19T17:42:10.883Z,11.43
2018-09-19T17:44:39.143Z,14.35
2018-09-19T17:47:07.403Z,12.23
2018-09-19T17:49:37.031Z,12.18
2018-09-19T17:52:05.303Z,15.50
2018-09-19T17:54:33.672Z,14.98
2018-09-19T17:57:01.967Z,10.40
2018-09-19T17:59:30.247Z,10.50
2018-09-19T18:01:58.492Z,12.50
2018-09-19T18:04:27.147Z,14.65
2018-09-19T18:06:55.423Z,15.48
2018-09-19T18:09:23.847Z,15.10
2018-09-19T18:11:54.534Z,12.35
2018-09-19T18:14:22.881Z,14.25
2018-09-19T18:16:51.148Z,13.80
2018-09-19T18:19:19.974Z,9.85
2018-09-19T18:21:48.234Z,13.22
2018-09-19T18:24:16.503Z,14.23
2018-09-19T18:26:45.122Z,12.85
2018-09-19T18:29:13.414Z,14.63
2018-09-19T18:31:41.906Z,6.75
2018-09-19T18:34:11.578Z,7.80
2018-09-19T18:36:40.142Z,11.55
2018-09-19T18:39:08.418Z,11.90
2018-09-19T18:41:37.852Z,12.40
2018-09-19T18:44:06.094Z,9.60
2018-09-19T18:46:34.555Z,8.90
2018-09-19T18:49:03.190Z,7.42
2018-09-19T18:51:31.527Z,10.23
2018-09-19T18:53:59.810Z,10.55
2018-09-19T18:56:29.346Z,7.72
2018-09-19T18:58:57.684Z,8.43
2018-09-19T19:01:25.960Z,9.10
2018-09-19T19:03:54.292Z,7.10
2018-09-19T19:06:22.559Z,8.35
2018-09-19T19:08:50.990Z,11.18
2018-09-19T19:11:19.345Z,7.60
2018-09-19T19:13:49.112Z,7.72
2018-09-19T19:16:17.902Z,13.32
2018-09-19T19:18:46.526Z,6.42
2018-09-19T19:21:14.837Z,10.50
2018-09-19T19:23:43.270Z,6.05
2018-09-19T19:26:11.919Z,9.03
2018-09-19T19:28:40.199Z,12.90
2018-09-19T19:31:08.513Z,11.70
2018-09-19T19:33:38.150Z,8.40
2018-09-19T19:36:06.556Z,8.65
2018-09-19T19:38:34.821Z,8.85
2018-09-19T19:41:03.467Z,10.95
2018-09-19T19:43:31.754Z,8.33
2018-09-19T19:46:00.036Z,11.75
2018-09-19T19:48:28.418Z,10.85
2018-09-19T19:50:56.792Z,11.43
2018-09-19T19:53:25.091Z,8.73
2018-09-19T19:55:57.434Z,7.55
2018-09-19T19:58:25.685Z,9.03
2018-09-19T20:00:53.936Z,10.90
2018-09-19T20:03:22.236Z,9.05
2018-09-19T20:05:52.695Z,14.43
2018-09-19T20:08:20.946Z,8.00
2018-09-19T20:10:49.667Z,10.28
2018-09-19T20:13:17.919Z,6.10
2018-09-19T20:15:46.176Z,7.55
2018-09-19T20:18:15.196Z,6.55
2018-09-19T20:20:43.565Z,6.72
2018-09-19T20:23:11.843Z,7.58
2018-09-19T20:25:40.648Z,9.65
2018-09-19T20:28:09.002Z,9.05
2018-09-19T20:30:37.237Z,6.97
2018-09-19T20:33:06.079Z,7.50
2018-09-19T20:35:34.335Z,5.47
2018-09-19T20:38:02.666Z,9.20
2018-09-19T20:40:31.011Z,9.73
2018-09-19T20:42:59.242Z,6.12
2018-09-19T20:45:27.782Z,9.13
2018-09-19T20:47:57.069Z,5.17
2018-09-19T20:50:25.463Z,4.20
2018-09-19T20:52:53.688Z,5.37
2018-09-19T20:55:21.966Z,6.72
2018-09-19T20:57:50.213Z,4.60
2018-09-19T21:00:18.638Z,6.35
2018-09-19T21:02:47.007Z,5.40
2018-09-19T21:05:15.311Z,5.47
2018-09-19T21:07:44.364Z,5.10
2018-09-19T21:10:13.212Z,5.28
2018-09-19T21:12:41.514Z,5.50
2018-09-19T21:15:09.810Z,6.85
2018-09-19T21:17:38.436Z,7.00
2018-09-19T21:20:06.775Z,6.65
2018-09-19T21:22:35.046Z,4.53
2018-09-19T21:25:03.570Z,8.05
2018-09-19T21:27:31.827Z,7.33
2018-09-19T21:30:00.066Z,6.15
2018-09-19T21:32:29.115Z,6.42
2018-09-19T21:34:57.370Z,3.92
2018-09-19T21:37:25.684Z,6.75
2018-09-19T21:39:54.134Z,4.72
2018-09-19T21:42:22.524Z,3.58
2018-09-19T21:44:50.766Z,5.20
2018-09-19T21:47:19.402Z,4.62
2018-09-19T21:49:47.763Z,6.30
2018-09-19T21:52:16.003Z,6.45
2018-09-19T21:54:45.363Z,4.28
2018-09-19T21:57:13.574Z,4.80
2018-09-19T21:59:41.902Z,4.83
2018-09-19T22:02:10.486Z,7.60
2018-09-19T22:04:38.797Z,2.67
2018-09-19T22:07:07.182Z,6.65
2018-09-19T22:09:36.151Z,4.78
2018-09-19T22:12:09.011Z,2.87
2018-09-19T22:14:38.634Z,4.30
2018-09-19T22:17:06.898Z,4.42
2018-09-19T22:19:35.153Z,5.35
2018-09-19T22:22:04.083Z,2.87
2018-09-19T22:24:32.810Z,2.67
2018-09-19T22:27:01.047Z,3.20
2018-09-19T22:29:29.522Z,3.33
2018-09-19T22:31:57.829Z,4.47
2018-09-19T22:34:26.318Z,4.25
2018-09-19T22:36:55.385Z,4.28
2018-09-19T22:39:23.609Z,2.75
2018-09-19T22:41:51.843Z,3.80
2018-09-19T22:44:20.336Z,4.70
2018-09-19T22:46:48.626Z,3.50
2018-09-19T22:49:16.876Z,3.92
2018-09-19T22:51:45.868Z,4.17
2018-09-19T22:54:14.094Z,2.55
2018-09-19T22:56:42.326Z,3.72
2018-09-19T22:59:11.206Z,4.55
2018-09-19T23:01:39.502Z,3.55
2018-09-19T23:04:09.695Z,4.70
2018-09-19T23:06:38.055Z,4.33
2018-09-19T23:09:07.519Z,4.22
2018-09-19T23:11:36.682Z,3.83
2018-09-19T23:14:04.915Z,2.95
2018-09-19T23:16:33.146Z,2.58
2018-09-19T23:19:01.618Z,3.15
2018-09-19T23:21:29.851Z,2.55
2018-09-19T23:23:58.178Z,3.72
2018-09-19T23:26:27.359Z,3.85
2018-09-19T23:28:55.775Z,5.53
2018-09-19T23:31:24.083Z,2.70
2018-09-19T23:33:52.702Z,3.00
2018-09-19T23:36:20.939Z,2.37
2018-09-19T23:38:49.167Z,2.65
2018-09-19T23:41:17.647Z,4.17
2018-09-19T23:43:45.884Z,3.70
2018-09-19T23:46:14.189Z,2.77
2018-09-19T23:48:42.777Z,2.55
2018-09-19T23:51:11.062Z,4.90
2018-09-19T23:53:39.308Z,3.05
2018-09-19T23:56:07.575Z,2.42
2018-09-19T23:58:35.824Z,3.05
